sensor_id;sensor_type;location;lat;lon;timestamp;pressure;altitude;pressure_sealevel;temperature;humidity
63405;BME280;49541;57.840;12.306;2023-05-12T00:04:52;101474.50;;;13.49;47.90
63405;BME280;49541;57.840;12.306;2023-05-12T00:09:52;101476.06;;;13.31;47.97
63405;BME280;49541;57.840;12.306;2023-05-12T00:14:53;101470.94;;;13.28;48.18
63405;BME280;49541;57.840;12.306;2023-05-12T00:19:53;101471.81;;;12.96;49.75
63405;BME280;49541;57.840;12.306;2023-05-12T00:24:53;101478.31;;;13.15;47.89
63405;BME280;49541;57.840;12.306;2023-05-12T00:29:53;101479.94;;;12.95;48.09
63405;BME280;49541;57.840;12.306;2023-05-12T00:34:53;101478.75;;;13.20;46.07
63405;BME280;49541;57.840;12.306;2023-05-12T00:39:54;101479.94;;;12.95;46.69
63405;BME280;49541;57.840;12.306;2023-05-12T00:44:54;101485.38;;;12.72;47.34
63405;BME280;49541;57.840;12.306;2023-05-12T00:49:54;101482.09;;;12.68;47.36
63405;BME280;49541;57.840;12.306;2023-05-12T00:54:54;101489.22;;;12.79;47.04
63405;BME280;49541;57.840;12.306;2023-05-12T00:59:55;101491.47;;;12.63;46.97
63405;BME280;49541;57.840;12.306;2023-05-12T01:04:55;101505.09;;;12.48;47.68
63405;BME280;49541;57.840;12.306;2023-05-12T01:09:55;101500.34;;;12.52;48.00
63405;BME280;49541;57.840;12.306;2023-05-12T01:14:56;101508.13;;;12.10;48.28
63405;BME280;49541;57.840;12.306;2023-05-12T01:20:00;101504.72;;;11.97;49.68
63405;BME280;49541;57.840;12.306;2023-05-12T01:25:04;101506.94;;;12.03;50.25
63405;BME280;49541;57.840;12.306;2023-05-12T01:30:06;101516.31;;;11.84;50.43
63405;BME280;49541;57.840;12.306;2023-05-12T01:35:07;101512.53;;;11.76;51.44
63405;BME280;49541;57.840;12.306;2023-05-12T01:40:07;101524.03;;;11.65;51.69
63405;BME280;49541;57.840;12.306;2023-05-12T01:45:08;101519.72;;;11.40;51.70
63405;BME280;49541;57.840;12.306;2023-05-12T01:50:08;101519.75;;;11.16;51.55
63405;BME280;49541;57.840;12.306;2023-05-12T01:55:09;101526.00;;;11.03;52.37
63405;BME280;49541;57.840;12.306;2023-05-12T02:00:09;101525.06;;;11.16;53.16
63405;BME280;49541;57.840;12.306;2023-05-12T02:05:09;101527.28;;;10.98;53.12
63405;BME280;49541;57.840;12.306;2023-05-12T02:10:10;101535.78;;;10.79;54.13
63405;BME280;49541;57.840;12.306;2023-05-12T02:15:10;101531.88;;;10.72;54.58
63405;BME280;49541;57.840;12.306;2023-05-12T02:20:11;101532.84;;;10.58;53.60
63405;BME280;49541;57.840;12.306;2023-05-12T02:25:11;101538.00;;;10.48;54.71
63405;BME280;49541;57.840;12.306;2023-05-12T02:30:11;101540.78;;;10.34;55.12
63405;BME280;49541;57.840;12.306;2023-05-12T02:35:11;101538.34;;;10.31;55.19
63405;BME280;49541;57.840;12.306;2023-05-12T02:40:11;101536.41;;;10.07;55.71
63405;BME280;49541;57.840;12.306;2023-05-12T02:45:12;101531.72;;;9.98;57.30
63405;BME280;49541;57.840;12.306;2023-05-12T02:50:12;101540.13;;;9.79;57.43
63405;BME280;49541;57.840;12.306;2023-05-12T02:55:12;101538.25;;;9.41;57.62
63405;BME280;49541;57.840;12.306;2023-05-12T03:00:12;101538.94;;;9.70;57.33
63405;BME280;49541;57.840;12.306;2023-05-12T03:05:13;101541.16;;;9.51;57.65
63405;BME280;49541;57.840;12.306;2023-05-12T03:10:13;101537.59;;;9.37;58.60
63405;BME280;49541;57.840;12.306;2023-05-12T03:15:13;101536.56;;;9.40;58.57
63405;BME280;49541;57.840;12.306;2023-05-12T03:20:13;101540.28;;;9.10;58.88
63405;BME280;49541;57.840;12.306;2023-05-12T03:25:14;101541.53;;;9.05;58.49
63405;BME280;49541;57.840;12.306;2023-05-12T03:30:14;101538.78;;;9.06;57.11
63405;BME280;49541;57.840;12.306;2023-05-12T03:35:15;101544.22;;;9.17;57.42
63405;BME280;49541;57.840;12.306;2023-05-12T03:40:15;101548.50;;;9.20;58.85
63405;BME280;49541;57.840;12.306;2023-05-12T03:45:17;101543.94;;;9.22;59.17
63405;BME280;49541;57.840;12.306;2023-05-12T03:50:18;101551.31;;;9.04;58.60
63405;BME280;49541;57.840;12.306;2023-05-12T03:55:18;101552.38;;;9.01;57.87
63405;BME280;49541;57.840;12.306;2023-05-12T04:00:18;101557.22;;;9.22;58.27
63405;BME280;49541;57.840;12.306;2023-05-12T04:05:18;101562.94;;;9.16;58.15
63405;BME280;49541;57.840;12.306;2023-05-12T04:10:18;101566.72;;;9.12;59.29
63405;BME280;49541;57.840;12.306;2023-05-12T04:15:19;101560.56;;;9.38;58.82
63405;BME280;49541;57.840;12.306;2023-05-12T04:20:19;101563.69;;;9.18;59.77
63405;BME280;49541;57.840;12.306;2023-05-12T04:25:19;101565.75;;;9.00;57.64
63405;BME280;49541;57.840;12.306;2023-05-12T04:30:20;101567.91;;;9.88;57.76
63405;BME280;49541;57.840;12.306;2023-05-12T04:35:20;101570.69;;;9.46;59.60
63405;BME280;49541;57.840;12.306;2023-05-12T04:40:21;101563.72;;;9.31;60.10
63405;BME280;49541;57.840;12.306;2023-05-12T04:45:21;101573.59;;;9.29;57.19
63405;BME280;49541;57.840;12.306;2023-05-12T04:50:21;101573.59;;;9.56;56.98
63405;BME280;49541;57.840;12.306;2023-05-12T04:55:21;101569.16;;;9.82;57.59
63405;BME280;49541;57.840;12.306;2023-05-12T05:00:22;101568.75;;;10.01;58.65
63405;BME280;49541;57.840;12.306;2023-05-12T05:05:22;101566.63;;;10.19;59.75
63405;BME280;49541;57.840;12.306;2023-05-12T05:10:22;101579.63;;;10.36;61.40
63405;BME280;49541;57.840;12.306;2023-05-12T05:15:22;101582.91;;;10.65;61.62
63405;BME280;49541;57.840;12.306;2023-05-12T05:20:22;101580.13;;;10.80;59.94
63405;BME280;49541;57.840;12.306;2023-05-12T05:25:23;101593.88;;;10.74;60.40
63405;BME280;49541;57.840;12.306;2023-05-12T05:30:23;101595.97;;;11.18;60.70
63405;BME280;49541;57.840;12.306;2023-05-12T05:35:23;101590.97;;;11.38;60.33
63405;BME280;49541;57.840;12.306;2023-05-12T05:40:23;101593.09;;;11.81;56.22
63405;BME280;49541;57.840;12.306;2023-05-12T05:45:23;101599.09;;;11.96;52.61
63405;BME280;49541;57.840;12.306;2023-05-12T05:50:24;101601.00;;;12.29;54.67
63405;BME280;49541;57.840;12.306;2023-05-12T05:55:24;101608.16;;;12.40;53.78
63405;BME280;49541;57.840;12.306;2023-05-12T06:00:24;101613.84;;;12.69;53.13
63405;BME280;49541;57.840;12.306;2023-05-12T06:05:24;101613.50;;;12.85;51.76
63405;BME280;49541;57.840;12.306;2023-05-12T06:10:24;101615.50;;;13.15;51.07
63405;BME280;49541;57.840;12.306;2023-05-12T06:15:25;101614.91;;;13.23;50.08
63405;BME280;49541;57.840;12.306;2023-05-12T06:20:25;101619.31;;;13.56;49.64
63405;BME280;49541;57.840;12.306;2023-05-12T06:25:25;101613.09;;;13.88;47.94
63405;BME280;49541;57.840;12.306;2023-05-12T06:30:25;101614.97;;;13.97;48.69
63405;BME280;49541;57.840;12.306;2023-05-12T06:35:26;101619.66;;;14.26;47.62
63405;BME280;49541;57.840;12.306;2023-05-12T06:40:26;101619.56;;;14.58;47.99
63405;BME280;49541;57.840;12.306;2023-05-12T06:45:26;101623.72;;;14.72;46.93
63405;BME280;49541;57.840;12.306;2023-05-12T06:50:27;101622.31;;;14.78;47.37
63405;BME280;49541;57.840;12.306;2023-05-12T06:55:27;101622.41;;;15.07;45.95
63405;BME280;49541;57.840;12.306;2023-05-12T07:00:27;101625.28;;;15.25;45.89
63405;BME280;49541;57.840;12.306;2023-05-12T07:05:27;101628.84;;;15.54;45.32
63405;BME280;49541;57.840;12.306;2023-05-12T07:10:27;101643.03;;;15.86;44.27
63405;BME280;49541;57.840;12.306;2023-05-12T07:15:27;101636.59;;;16.26;43.15
63405;BME280;49541;57.840;12.306;2023-05-12T07:20:28;101637.84;;;16.31;43.61
63405;BME280;49541;57.840;12.306;2023-05-12T07:25:28;101637.34;;;16.55;42.89
63405;BME280;49541;57.840;12.306;2023-05-12T07:30:28;101646.22;;;17.03;41.98
63405;BME280;49541;57.840;12.306;2023-05-12T07:35:29;101632.53;;;17.42;41.19
63405;BME280;49541;57.840;12.306;2023-05-12T07:40:29;101642.88;;;17.47;40.76
63405;BME280;49541;57.840;12.306;2023-05-12T07:45:30;101647.63;;;17.71;40.46
63405;BME280;49541;57.840;12.306;2023-05-12T07:50:30;101643.09;;;17.89;39.57
63405;BME280;49541;57.840;12.306;2023-05-12T07:55:30;101639.59;;;18.15;39.49
63405;BME280;49541;57.840;12.306;2023-05-12T08:00:32;101636.66;;;18.60;37.82
63405;BME280;49541;57.840;12.306;2023-05-12T08:05:32;101641.53;;;18.83;37.69
63405;BME280;49541;57.840;12.306;2023-05-12T08:10:32;101646.19;;;19.07;37.35
63405;BME280;49541;57.840;12.306;2023-05-12T08:15:32;101647.28;;;19.39;36.48
63405;BME280;49541;57.840;12.306;2023-05-12T08:20:33;101648.19;;;19.72;35.91
63405;BME280;49541;57.840;12.306;2023-05-12T08:25:34;101643.97;;;20.11;33.97
63405;BME280;49541;57.840;12.306;2023-05-12T08:30:36;101644.63;;;20.37;34.24
63405;BME280;49541;57.840;12.306;2023-05-12T08:35:36;101642.44;;;20.89;33.57
63405;BME280;49541;57.840;12.306;2023-05-12T08:41:22;101641.94;;;21.24;31.17
63405;BME280;49541;57.840;12.306;2023-05-12T08:45:57;101636.66;;;21.62;31.42
63405;BME280;49541;57.840;12.306;2023-05-12T08:50:57;101637.88;;;21.98;29.31
63405;BME280;49541;57.840;12.306;2023-05-12T08:55:57;101638.72;;;22.36;29.76
63405;BME280;49541;57.840;12.306;2023-05-12T09:00:59;101627.63;;;22.46;26.88
63405;BME280;49541;57.840;12.306;2023-05-12T09:06:00;101635.06;;;22.88;26.73
63405;BME280;49541;57.840;12.306;2023-05-12T09:11:01;101634.13;;;22.81;28.05
63405;BME280;49541;57.840;12.306;2023-05-12T09:16:02;101628.78;;;23.18;27.16
63405;BME280;49541;57.840;12.306;2023-05-12T09:21:03;101631.47;;;23.76;26.63
63405;BME280;49541;57.840;12.306;2023-05-12T09:26:03;101634.59;;;23.94;26.80
63405;BME280;49541;57.840;12.306;2023-05-12T09:31:15;101625.38;;;24.23;25.91
63405;BME280;49541;57.840;12.306;2023-05-12T09:36:16;101624.41;;;24.66;25.52
63405;BME280;49541;57.840;12.306;2023-05-12T09:41:23;101625.38;;;24.93;24.82
63405;BME280;49541;57.840;12.306;2023-05-12T09:46:24;101628.78;;;25.08;23.85
63405;BME280;49541;57.840;12.306;2023-05-12T09:51:25;101626.81;;;25.64;23.75
63405;BME280;49541;57.840;12.306;2023-05-12T09:56:26;101618.88;;;25.82;21.61
63405;BME280;49541;57.840;12.306;2023-05-12T10:01:27;101625.59;;;26.33;23.30
63405;BME280;49541;57.840;12.306;2023-05-12T10:06:31;101630.16;;;26.52;22.18
63405;BME280;49541;57.840;12.306;2023-05-12T10:11:32;101627.94;;;26.94;22.50
63405;BME280;49541;57.840;12.306;2023-05-12T10:16:33;101629.69;;;27.27;20.64
63405;BME280;49541;57.840;12.306;2023-05-12T10:21:34;101626.69;;;27.99;16.18
63405;BME280;49541;57.840;12.306;2023-05-12T10:26:35;101618.81;;;27.52;18.90
63405;BME280;49541;57.840;12.306;2023-05-12T10:31:36;101610.53;;;27.91;18.64
63405;BME280;49541;57.840;12.306;2023-05-12T10:36:47;101608.63;;;28.16;18.94
63405;BME280;49541;57.840;12.306;2023-05-12T10:41:59;101610.28;;;28.17;17.58
63405;BME280;49541;57.840;12.306;2023-05-12T10:46:59;101612.47;;;28.89;16.60
63405;BME280;49541;57.840;12.306;2023-05-12T10:52:00;101610.22;;;28.98;17.28
63405;BME280;49541;57.840;12.306;2023-05-12T10:57:00;101608.28;;;28.50;18.38
63405;BME280;49541;57.840;12.306;2023-05-12T11:02:04;101605.88;;;28.16;16.01
63405;BME280;49541;57.840;12.306;2023-05-12T11:07:05;101604.63;;;28.74;17.06
63405;BME280;49541;57.840;12.306;2023-05-12T11:12:06;101591.78;;;29.35;17.17
63405;BME280;49541;57.840;12.306;2023-05-12T11:17:07;101599.06;;;28.81;16.19
63405;BME280;49541;57.840;12.306;2023-05-12T11:22:11;101600.56;;;27.71;17.59
63405;BME280;49541;57.840;12.306;2023-05-12T11:27:12;101602.19;;;27.86;17.51
63405;BME280;49541;57.840;12.306;2023-05-12T11:32:14;101612.88;;;29.05;15.98
63405;BME280;49541;57.840;12.306;2023-05-12T11:37:14;101589.56;;;27.78;18.09
63405;BME280;49541;57.840;12.306;2023-05-12T11:42:14;101590.94;;;28.37;17.51
63405;BME280;49541;57.840;12.306;2023-05-12T11:47:15;101576.50;;;27.55;17.65
63405;BME280;49541;57.840;12.306;2023-05-12T11:52:16;101593.03;;;27.98;18.78
63405;BME280;49541;57.840;12.306;2023-05-12T11:57:53;101581.84;;;29.11;17.38
63405;BME280;49541;57.840;12.306;2023-05-12T12:02:43;101581.50;;;30.96;17.28
63405;BME280;49541;57.840;12.306;2023-05-12T12:07:43;101578.38;;;31.50;16.90
63405;BME280;49541;57.840;12.306;2023-05-12T12:12:44;101577.53;;;31.49;14.46
63405;BME280;49541;57.840;12.306;2023-05-12T12:17:44;101577.34;;;30.93;14.74
63405;BME280;49541;57.840;12.306;2023-05-12T12:22:45;101582.56;;;28.99;16.51
63405;BME280;49541;57.840;12.306;2023-05-12T12:27:45;101592.94;;;29.16;16.81
63405;BME280;49541;57.840;12.306;2023-05-12T12:32:45;101578.56;;;29.32;17.28
63405;BME280;49541;57.840;12.306;2023-05-12T12:37:46;101585.13;;;29.97;15.38
63405;BME280;49541;57.840;12.306;2023-05-12T12:42:50;101589.63;;;30.38;15.71
63405;BME280;49541;57.840;12.306;2023-05-12T12:47:51;101588.03;;;31.69;15.36
63405;BME280;49541;57.840;12.306;2023-05-12T12:52:53;101576.13;;;31.18;14.51
63405;BME280;49541;57.840;12.306;2023-05-12T12:57:53;101588.06;;;32.47;16.41
63405;BME280;49541;57.840;12.306;2023-05-12T13:02:54;101572.00;;;33.37;13.19
63405;BME280;49541;57.840;12.306;2023-05-12T13:07:54;101567.50;;;29.09;16.39
63405;BME280;49541;57.840;12.306;2023-05-12T13:12:54;101565.28;;;29.17;17.26
63405;BME280;49541;57.840;12.306;2023-05-12T13:17:54;101569.53;;;28.28;18.60
63405;BME280;49541;57.840;12.306;2023-05-12T13:22:55;101574.38;;;25.28;23.33
63405;BME280;49541;57.840;12.306;2023-05-12T13:27:55;101577.09;;;24.32;24.56
63405;BME280;49541;57.840;12.306;2023-05-12T13:32:55;101568.50;;;24.00;24.61
63405;BME280;49541;57.840;12.306;2023-05-12T13:37:55;101572.28;;;23.99;24.56
63405;BME280;49541;57.840;12.306;2023-05-12T13:42:56;101568.28;;;24.65;24.45
63405;BME280;49541;57.840;12.306;2023-05-12T13:47:56;101573.47;;;24.53;24.38
63405;BME280;49541;57.840;12.306;2023-05-12T13:52:56;101577.56;;;24.07;25.25
63405;BME280;49541;57.840;12.306;2023-05-12T13:57:57;101570.34;;;23.93;25.02
63405;BME280;49541;57.840;12.306;2023-05-12T14:02:57;101577.63;;;23.86;24.99
63405;BME280;49541;57.840;12.306;2023-05-12T14:07:57;101583.06;;;23.64;24.93
63405;BME280;49541;57.840;12.306;2023-05-12T14:12:57;101574.72;;;24.16;24.96
63405;BME280;49541;57.840;12.306;2023-05-12T14:17:57;101589.84;;;23.97;24.07
63405;BME280;49541;57.840;12.306;2023-05-12T14:22:58;101585.31;;;23.82;24.12
63405;BME280;49541;57.840;12.306;2023-05-12T14:27:58;101580.59;;;23.26;24.92
63405;BME280;49541;57.840;12.306;2023-05-12T14:32:58;101580.84;;;23.10;25.18
63405;BME280;49541;57.840;12.306;2023-05-12T14:37:58;101582.91;;;23.29;25.55
63405;BME280;49541;57.840;12.306;2023-05-12T14:42:58;101583.19;;;22.98;25.93
63405;BME280;49541;57.840;12.306;2023-05-12T14:47:59;101579.63;;;23.13;25.26
63405;BME280;49541;57.840;12.306;2023-05-12T14:52:59;101581.16;;;23.00;26.18
63405;BME280;49541;57.840;12.306;2023-05-12T14:57:59;101563.91;;;23.29;26.04
63405;BME280;49541;57.840;12.306;2023-05-12T15:02:59;101572.19;;;23.64;25.25
63405;BME280;49541;57.840;12.306;2023-05-12T15:08:01;101574.00;;;23.36;25.49
63405;BME280;49541;57.840;12.306;2023-05-12T15:13:01;101564.00;;;23.15;25.83
63405;BME280;49541;57.840;12.306;2023-05-12T15:18:02;101564.47;;;23.03;25.93
63405;BME280;49541;57.840;12.306;2023-05-12T15:23:03;101571.97;;;22.86;25.88
63405;BME280;49541;57.840;12.306;2023-05-12T15:28:03;101567.97;;;23.19;25.71
63405;BME280;49541;57.840;12.306;2023-05-12T15:33:03;101566.59;;;22.72;25.63
63405;BME280;49541;57.840;12.306;2023-05-12T15:38:03;101557.41;;;22.73;25.79
63405;BME280;49541;57.840;12.306;2023-05-12T15:43:03;101555.38;;;22.45;26.27
63405;BME280;49541;57.840;12.306;2023-05-12T15:48:04;101559.09;;;22.74;25.75
63405;BME280;49541;57.840;12.306;2023-05-12T15:53:04;101564.00;;;23.00;25.34
63405;BME280;49541;57.840;12.306;2023-05-12T15:58:05;101565.06;;;22.69;25.33
63405;BME280;49541;57.840;12.306;2023-05-12T16:03:07;101559.81;;;23.19;25.11
63405;BME280;49541;57.840;12.306;2023-05-12T16:13:08;101551.28;;;22.85;25.33
63405;BME280;49541;57.840;12.306;2023-05-12T16:18:08;101548.13;;;22.82;25.48
63405;BME280;49541;57.840;12.306;2023-05-12T16:23:08;101566.03;;;22.61;25.11
63405;BME280;49541;57.840;12.306;2023-05-12T16:28:09;101552.06;;;22.20;25.64
63405;BME280;49541;57.840;12.306;2023-05-12T16:33:09;101550.00;;;22.81;24.92
63405;BME280;49541;57.840;12.306;2023-05-12T16:38:10;101552.56;;;22.68;24.99
63405;BME280;49541;57.840;12.306;2023-05-12T16:43:10;101546.88;;;22.63;25.03
63405;BME280;49541;57.840;12.306;2023-05-12T16:48:10;101540.75;;;23.12;24.15
63405;BME280;49541;57.840;12.306;2023-05-12T16:53:10;101550.72;;;22.90;24.15
63405;BME280;49541;57.840;12.306;2023-05-12T16:58:11;101547.22;;;22.60;24.62
63405;BME280;49541;57.840;12.306;2023-05-12T17:03:11;101533.81;;;22.73;24.72
63405;BME280;49541;57.840;12.306;2023-05-12T17:08:11;101536.13;;;23.06;23.49
63405;BME280;49541;57.840;12.306;2023-05-12T17:13:11;101534.63;;;22.88;23.54
63405;BME280;49541;57.840;12.306;2023-05-12T17:18:12;101542.22;;;22.42;24.78
63405;BME280;49541;57.840;12.306;2023-05-12T17:23:12;101545.00;;;22.34;25.03
63405;BME280;49541;57.840;12.306;2023-05-12T17:28:12;101538.56;;;21.67;25.91
63405;BME280;49541;57.840;12.306;2023-05-12T17:33:12;101523.34;;;21.81;26.75
63405;BME280;49541;57.840;12.306;2023-05-12T17:38:14;101542.19;;;22.12;26.04
63405;BME280;49541;57.840;12.306;2023-05-12T17:43:14;101548.56;;;22.49;25.70
63405;BME280;49541;57.840;12.306;2023-05-12T17:48:15;101556.53;;;23.02;25.41
63405;BME280;49541;57.840;12.306;2023-05-12T17:53:15;101554.69;;;22.73;25.07
63405;BME280;49541;57.840;12.306;2023-05-12T17:58:15;101563.81;;;22.35;25.24
63405;BME280;49541;57.840;12.306;2023-05-12T18:03:15;101558.84;;;22.24;25.50
63405;BME280;49541;57.840;12.306;2023-05-12T18:08:16;101552.53;;;22.08;26.10
63405;BME280;49541;57.840;12.306;2023-05-12T18:13:16;101549.06;;;21.85;26.33
63405;BME280;49541;57.840;12.306;2023-05-12T18:18:16;101553.75;;;21.91;26.62
63405;BME280;49541;57.840;12.306;2023-05-12T18:23:17;101553.53;;;22.31;25.80
63405;BME280;49541;57.840;12.306;2023-05-12T18:28:17;101564.91;;;22.56;25.74
63405;BME280;49541;57.840;12.306;2023-05-12T18:33:17;101571.38;;;22.25;26.61
63405;BME280;49541;57.840;12.306;2023-05-12T18:38:17;101568.00;;;21.70;27.51
63405;BME280;49541;57.840;12.306;2023-05-12T18:43:18;101575.84;;;21.65;27.70
63405;BME280;49541;57.840;12.306;2023-05-12T18:48:18;101569.06;;;21.84;27.93
63405;BME280;49541;57.840;12.306;2023-05-12T18:53:18;101581.63;;;21.62;28.46
63405;BME280;49541;57.840;12.306;2023-05-12T18:58:18;101584.59;;;21.90;27.96
63405;BME280;49541;57.840;12.306;2023-05-12T19:03:18;101582.97;;;21.12;29.25
63405;BME280;49541;57.840;12.306;2023-05-12T19:08:18;101596.84;;;21.09;30.56
63405;BME280;49541;57.840;12.306;2023-05-12T19:13:19;101591.19;;;20.95;29.78
63405;BME280;49541;57.840;12.306;2023-05-12T19:18:19;101591.69;;;20.59;31.49
63405;BME280;49541;57.840;12.306;2023-05-12T19:23:20;101594.91;;;20.38;31.74
63405;BME280;49541;57.840;12.306;2023-05-12T19:28:20;101601.81;;;20.65;32.14
63405;BME280;49541;57.840;12.306;2023-05-12T19:33:20;101608.44;;;20.46;33.21
63405;BME280;49541;57.840;12.306;2023-05-12T19:38:21;101611.88;;;20.16;33.36
63405;BME280;49541;57.840;12.306;2023-05-12T19:43:21;101608.72;;;19.79;33.96
63405;BME280;49541;57.840;12.306;2023-05-12T19:48:21;101616.25;;;19.59;34.33
63405;BME280;49541;57.840;12.306;2023-05-12T19:53:21;101613.19;;;19.30;35.00
63405;BME280;49541;57.840;12.306;2023-05-12T19:58:22;101604.97;;;18.97;35.57
63405;BME280;49541;57.840;12.306;2023-05-12T20:03:22;101600.16;;;18.74;36.49
63405;BME280;49541;57.840;12.306;2023-05-12T20:08:22;101605.16;;;18.61;36.92
63405;BME280;49541;57.840;12.306;2023-05-12T20:13:22;101608.56;;;18.63;37.26
63405;BME280;49541;57.840;12.306;2023-05-12T20:18:22;101603.47;;;18.60;37.06
63405;BME280;49541;57.840;12.306;2023-05-12T20:23:23;101603.38;;;17.91;38.38
63405;BME280;49541;57.840;12.306;2023-05-12T20:28:23;101607.19;;;18.07;37.98
63405;BME280;49541;57.840;12.306;2023-05-12T20:33:24;101608.09;;;17.53;39.09
63405;BME280;49541;57.840;12.306;2023-05-12T20:38:24;101605.22;;;17.37;39.53
63405;BME280;49541;57.840;12.306;2023-05-12T20:43:24;101600.16;;;17.34;39.89
63405;BME280;49541;57.840;12.306;2023-05-12T20:48:24;101614.56;;;17.43;39.94
63405;BME280;49541;57.840;12.306;2023-05-12T20:53:25;101609.25;;;16.77;41.09
63405;BME280;49541;57.840;12.306;2023-05-12T20:58:25;101609.19;;;16.59;41.58
63405;BME280;49541;57.840;12.306;2023-05-12T21:03:25;101614.91;;;16.47;42.18
63405;BME280;49541;57.840;12.306;2023-05-12T21:08:26;101614.19;;;16.45;42.43
63405;BME280;49541;57.840;12.306;2023-05-12T21:13:26;101620.13;;;15.82;43.46
63405;BME280;49541;57.840;12.306;2023-05-12T21:18:26;101612.88;;;15.53;44.44
63405;BME280;49541;57.840;12.306;2023-05-12T21:23:27;101612.91;;;15.92;43.91
63405;BME280;49541;57.840;12.306;2023-05-12T21:28:27;101612.56;;;15.27;44.83
63405;BME280;49541;57.840;12.306;2023-05-12T21:33:27;101607.66;;;15.32;44.82
63405;BME280;49541;57.840;12.306;2023-05-12T21:38:29;101617.66;;;15.10;45.13
63405;BME280;49541;57.840;12.306;2023-05-12T21:43:29;101612.97;;;14.62;46.51
63405;BME280;49541;57.840;12.306;2023-05-12T21:48:30;101610.34;;;14.51;46.90
63405;BME280;49541;57.840;12.306;2023-05-12T21:53:31;101619.28;;;14.30;47.74
63405;BME280;49541;57.840;12.306;2023-05-12T21:58:31;101619.47;;;13.97;48.16
63405;BME280;49541;57.840;12.306;2023-05-12T22:03:31;101613.50;;;13.51;49.82
63405;BME280;49541;57.840;12.306;2023-05-12T22:08:31;101615.16;;;13.08;51.12
63405;BME280;49541;57.840;12.306;2023-05-12T22:13:32;101617.63;;;12.55;52.92
63405;BME280;49541;57.840;12.306;2023-05-12T22:18:32;101617.66;;;11.97;55.05
63405;BME280;49541;57.840;12.306;2023-05-12T22:23:32;101620.78;;;11.91;56.03
63405;BME280;49541;57.840;12.306;2023-05-12T22:28:32;101615.22;;;11.70;56.60
63405;BME280;49541;57.840;12.306;2023-05-12T22:33:33;101624.31;;;11.67;57.02
63405;BME280;49541;57.840;12.306;2023-05-12T22:38:33;101630.47;;;11.57;57.20
63405;BME280;49541;57.840;12.306;2023-05-12T22:43:33;101630.06;;;11.26;58.10
63405;BME280;49541;57.840;12.306;2023-05-12T22:48:33;101623.41;;;11.07;59.19
63405;BME280;49541;57.840;12.306;2023-05-12T22:53:34;101627.28;;;11.03;59.16
63405;BME280;49541;57.840;12.306;2023-05-12T22:58:35;101630.56;;;11.31;58.13
63405;BME280;49541;57.840;12.306;2023-05-12T23:03:35;101637.28;;;11.37;58.13
63405;BME280;49541;57.840;12.306;2023-05-12T23:08:35;101640.22;;;11.45;57.48
63405;BME280;49541;57.840;12.306;2023-05-12T23:13:35;101634.50;;;11.38;57.63
63405;BME280;49541;57.840;12.306;2023-05-12T23:18:36;101641.03;;;11.58;56.81
63405;BME280;49541;57.840;12.306;2023-05-12T23:23:39;101638.44;;;11.09;58.27
63405;BME280;49541;57.840;12.306;2023-05-12T23:28:40;101642.47;;;10.52;60.55
63405;BME280;49541;57.840;12.306;2023-05-12T23:33:40;101648.84;;;10.62;60.66
63405;BME280;49541;57.840;12.306;2023-05-12T23:38:40;101648.00;;;10.61;60.59
63405;BME280;49541;57.840;12.306;2023-05-12T23:43:40;101642.75;;;10.85;59.43
63405;BME280;49541;57.840;12.306;2023-05-12T23:48:41;101653.09;;;10.64;60.23
63405;BME280;49541;57.840;12.306;2023-05-12T23:53:41;101651.50;;;10.36;61.61
63405;BME280;49541;57.840;12.306;2023-05-12T23:58:41;101649.66;;;10.11;62.60
